Wind From: 11-12-2017 07:30 Until: 12-12-2017 06:00 warning for: Wind Level: Orange info button

Power and phone distribution networks may be disrupted for relatively long periods., Roofs and chimneys can be damaged. , Tree branches may break. , Vehicles can be deported. , Traffic may be disrupted, particularly on secondary roads in forest areas. Limit your trips. , Limit your speed in highway driving, especially if you drive a vehicle or hitch sensitive to wind. , Do not go for walks in forests or along the coast., In town, be vigilant against possible falling objects., Do not work on roofs and do not touch any electrical line fallen on the ground., Store or secure sensitive objects to wind or likely to be damaged., Always install power generators outside buildings. 


Meteo18 Weather Cam more information Meteo18 Weather Cam


Thunder radar more information blitzortung!


Rain radar more information rain snow radar


Visit our other weather sites:

Template documentation
and downloads

And another site



Weather Underground History page Text

Daily Summary for July 14, 2017 Units:  Metric    English   Both
« Previous Day
Next Day »
Daily Weekly Monthly Yearly Custom
  High: Low: Average:
Temperature: 24.2 °C 14.4 °C 19.6 °C
Dew Point: 15.7 °C 9.8 °C 12.6 °C
Humidity: 94 % 45 % 66 %
Wind Speed: 19.3 km/h 0.0 km/h 5.2 km/h
Wind Gust: 29.0 km/h - -
Wind:- - West
Pressure: 1023.2 hPa 1020.2 hPa -
Precipitation: 0.0 mm    
Historical Graphs
 
 
Tabular Data for July 14, 2017
Time Temperature Dew Point Pressure Wind Wind Speed Wind Gust Humidity Rainfall Rate (Hourly)
00:02 20.2 °C 15.6 °C 1020.2 hPa Calm   8.0 km/h 75 % 0.0 mm
00:07 20.1 °C 15.5 °C 1020.2 hPa West 1.6 km/h 8.0 km/h 75 % 0.0 mm
00:12 20.1 °C 15.7 °C 1020.2 hPa WSW 3.2 km/h 6.4 km/h 76 % 0.0 mm
00:17 19.9 °C 15.5 °C 1020.2 hPa WSW 3.2 km/h 6.4 km/h 76 % 0.0 mm
00:22 19.9 °C 15.7 °C 1020.5 hPa Calm   6.4 km/h 77 % 0.0 mm
00:32 19.8 °C 15.4 °C 1020.2 hPa West 6.4 km/h 6.4 km/h 76 % 0.0 mm
00:37 19.9 °C 15.3 °C 1020.5 hPa WSW 9.7 km/h 9.7 km/h 75 % 0.0 mm
00:42 19.9 °C 15.3 °C 1020.5 hPa WSW 3.2 km/h 9.7 km/h 75 % 0.0 mm
00:52 19.9 °C 15.3 °C 1020.5 hPa West 9.7 km/h 11.3 km/h 75 % 0.0 mm
00:57 19.8 °C 15.2 °C 1020.5 hPa SW 3.2 km/h 12.9 km/h 75 % 0.0 mm
01:02 19.8 °C 15.2 °C 1020.5 hPa WNW 1.6 km/h 12.9 km/h 75 % 0.0 mm
01:12 19.7 °C 15.1 °C 1020.5 hPa West 11.3 km/h 12.9 km/h 75 % 0.0 mm
01:17 19.7 °C 15.1 °C 1020.2 hPa SW 6.4 km/h 12.9 km/h 75 % 0.0 mm
01:22 19.6 °C 15.0 °C 1020.2 hPa WSW 8.0 km/h 12.9 km/h 75 % 0.0 mm
01:32 19.3 °C 15.0 °C 1020.5 hPa WSW 6.4 km/h 12.9 km/h 76 % 0.0 mm
01:37 19.1 °C 15.0 °C 1020.5 hPa WSW 8.0 km/h 12.9 km/h 77 % 0.0 mm
01:42 19.1 °C 15.0 °C 1020.2 hPa WNW 9.7 km/h 11.3 km/h 77 % 0.0 mm
01:52 18.8 °C 14.9 °C 1020.5 hPa WSW 9.7 km/h 12.9 km/h 78 % 0.0 mm
02:02 18.6 °C 14.9 °C 1020.5 hPa West 6.4 km/h 11.3 km/h 79 % 0.0 mm
02:12 18.3 °C 14.8 °C 1020.5 hPa SSW 3.2 km/h 12.9 km/h 80 % 0.0 mm
02:22 18.1 °C 14.6 °C 1020.5 hPa Calm   12.9 km/h 80 % 0.0 mm
02:32 17.8 °C 14.5 °C 1020.5 hPa Calm   9.7 km/h 81 % 0.0 mm
02:37 17.6 °C 14.5 °C 1020.5 hPa SSW 1.6 km/h 8.0 km/h 82 % 0.0 mm
02:42 17.3 °C 14.4 °C 1020.2 hPa Calm   4.8 km/h 83 % 0.0 mm
02:47 16.9 °C 14.0 °C 1020.2 hPa SE 3.2 km/h 4.8 km/h 83 % 0.0 mm
02:52 16.6 °C 14.1 °C 1020.2 hPa SSE 1.6 km/h 4.8 km/h 85 % 0.0 mm
02:57 16.4 °C 13.9 °C 1020.2 hPa East 3.2 km/h 4.8 km/h 85 % 0.0 mm
03:02 16.3 °C 14.0 °C 1020.2 hPa Calm   8.0 km/h 86 % 0.0 mm
03:12 16.2 °C 14.0 °C 1020.2 hPa Calm   8.0 km/h 87 % 0.0 mm
03:17 16.1 °C 13.9 °C 1020.2 hPa Calm   4.8 km/h 87 % 0.0 mm
03:22 16.1 °C 13.9 °C 1020.5 hPa SE 1.6 km/h 4.8 km/h 87 % 0.0 mm
03:32 15.9 °C 13.9 °C 1020.2 hPa Calm   3.2 km/h 88 % 0.0 mm
03:37 15.9 °C 13.9 °C 1020.2 hPa Calm   3.2 km/h 88 % 0.0 mm
03:42 15.9 °C 14.1 °C 1020.2 hPa South 3.2 km/h 3.2 km/h 89 % 0.0 mm
03:47 15.8 °C 14.0 °C 1020.2 hPa Calm   4.8 km/h 89 % 0.0 mm
03:52 15.8 °C 14.0 °C 1020.2 hPa Calm   4.8 km/h 89 % 0.0 mm
03:57 15.7 °C 13.9 °C 1020.5 hPa Calm   4.8 km/h 89 % 0.0 mm
04:02 15.6 °C 13.8 °C 1020.5 hPa Calm   3.2 km/h 89 % 0.0 mm
04:12 15.5 °C 13.9 °C 1020.5 hPa Calm   1.6 km/h 90 % 0.0 mm
04:22 15.5 °C 14.0 °C 1020.5 hPa SW 1.6 km/h 1.6 km/h 91 % 0.0 mm
04:32 15.3 °C 13.7 °C 1020.2 hPa Calm   1.6 km/h 90 % 0.0 mm
04:42 15.1 °C 13.6 °C 1020.2 hPa Calm   1.6 km/h 91 % 0.0 mm
04:47 15.1 °C 13.8 °C 1020.5 hPa Calm     92 % 0.0 mm
04:52 15.1 °C 13.8 °C 1020.2 hPa Calm     92 % 0.0 mm
05:02 15.2 °C 13.7 °C 1020.5 hPa Calm     91 % 0.0 mm
05:12 15.1 °C 13.8 °C 1020.5 hPa SSW 1.6 km/h   92 % 0.0 mm
05:17 14.9 °C 13.4 °C 1020.5 hPa SW 1.6 km/h 4.8 km/h 91 % 0.0 mm
05:22 14.7 °C 13.4 °C 1020.5 hPa Calm   6.4 km/h 92 % 0.0 mm
05:27 14.8 °C 13.5 °C 1020.5 hPa Calm   6.4 km/h 92 % 0.0 mm
05:32 14.7 °C 13.4 °C 1020.5 hPa West 1.6 km/h 6.4 km/h 92 % 0.0 mm
05:42 14.8 °C 13.7 °C 1020.5 hPa Calm   4.8 km/h 93 % 0.0 mm
05:52 14.9 °C 13.6 °C 1020.9 hPa WNW 1.6 km/h 4.8 km/h 92 % 0.0 mm
05:57 14.9 °C 13.6 °C 1020.9 hPa Calm   4.8 km/h 92 % 0.0 mm
06:02 14.9 °C 13.6 °C 1020.9 hPa Calm   4.8 km/h 92 % 0.0 mm
06:12 14.7 °C 13.4 °C 1020.9 hPa Calm   4.8 km/h 92 % 0.0 mm
06:17 14.6 °C 13.3 °C 1020.9 hPa Calm   3.2 km/h 92 % 0.0 mm
06:22 14.4 °C 13.1 °C 1020.9 hPa Calm   1.6 km/h 92 % 0.0 mm
06:32 14.4 °C 13.3 °C 1021.2 hPa Calm   3.2 km/h 93 % 0.0 mm
06:37 14.6 °C 13.6 °C 1021.2 hPa WNW 3.2 km/h 3.2 km/h 94 % 0.0 mm
06:42 14.7 °C 13.6 °C 1021.2 hPa Calm   3.2 km/h 93 % 0.0 mm
06:47 14.9 °C 13.8 °C 1021.2 hPa Calm   3.2 km/h 93 % 0.0 mm
06:52 15.0 °C 13.9 °C 1021.2 hPa Calm   3.2 km/h 93 % 0.0 mm
06:57 15.0 °C 13.7 °C 1021.2 hPa Calm   3.2 km/h 92 % 0.0 mm
07:02 14.8 °C 13.5 °C 1021.2 hPa WNW 1.6 km/h 3.2 km/h 92 % 0.0 mm
07:07 15.0 °C 13.9 °C 1021.2 hPa Calm   3.2 km/h 93 % 0.0 mm
07:12 15.2 °C 13.9 °C 1021.2 hPa Calm   6.4 km/h 92 % 0.0 mm
07:17 15.4 °C 14.1 °C 1021.6 hPa Calm   6.4 km/h 92 % 0.0 mm
07:22 15.6 °C 14.1 °C 1021.6 hPa Calm   8.0 km/h 91 % 0.0 mm
07:27 15.6 °C 14.1 °C 1021.6 hPa NW 6.4 km/h 8.0 km/h 91 % 0.0 mm
07:32 15.6 °C 14.0 °C 1021.6 hPa WSW 3.2 km/h 8.0 km/h 90 % 0.0 mm
07:37 15.7 °C 14.1 °C 1021.6 hPa WNW 3.2 km/h 8.0 km/h 90 % 0.0 mm
07:42 15.8 °C 14.2 °C 1021.6 hPa West 4.8 km/h 8.0 km/h 90 % 0.0 mm
07:47 15.9 °C 14.1 °C 1021.6 hPa NW 3.2 km/h 8.0 km/h 89 % 0.0 mm
07:52 16.1 °C 14.1 °C 1021.6 hPa NW 3.2 km/h 8.0 km/h 88 % 0.0 mm
07:57 16.2 °C 14.0 °C 1021.6 hPa WNW 6.4 km/h 8.0 km/h 87 % 0.0 mm
08:02 16.4 °C 14.2 °C 1021.6 hPa NW 6.4 km/h 8.0 km/h 87 % 0.0 mm
08:07 16.4 °C 14.1 °C 1021.9 hPa NW 8.0 km/h 14.5 km/h 86 % 0.0 mm
08:12 16.5 °C 13.8 °C 1021.9 hPa WNW 4.8 km/h 14.5 km/h 84 % 0.0 mm
08:17 16.5 °C 13.8 °C 1021.9 hPa NW 6.4 km/h 14.5 km/h 84 % 0.0 mm
08:22 16.6 °C 13.7 °C 1021.9 hPa NW 3.2 km/h 12.9 km/h 83 % 0.0 mm
08:27 16.8 °C 13.7 °C 1021.9 hPa Calm   12.9 km/h 82 % 0.0 mm
08:32 16.8 °C 13.5 °C 1021.9 hPa NNW 1.6 km/h 9.7 km/h 81 % 0.0 mm
08:37 16.9 °C 13.6 °C 1021.9 hPa WNW 4.8 km/h 9.7 km/h 81 % 0.0 mm
08:42 16.9 °C 13.6 °C 1021.9 hPa NW 1.6 km/h 9.7 km/h 81 % 0.0 mm
08:47 17.1 °C 13.8 °C 1021.9 hPa NW 6.4 km/h 14.5 km/h 81 % 0.0 mm
08:52 17.4 °C 13.7 °C 1021.9 hPa Calm   14.5 km/h 79 % 0.0 mm
09:02 17.9 °C 13.6 °C 1021.9 hPa NW 1.6 km/h 9.7 km/h 76 % 0.0 mm
09:12 18.5 °C 13.6 °C 1021.9 hPa WNW 6.4 km/h 11.3 km/h 73 % 0.0 mm
09:17 18.7 °C 13.8 °C 1021.9 hPa WNW 1.6 km/h 16.1 km/h 73 % 0.0 mm
09:22 18.7 °C 13.8 °C 1021.9 hPa NNW 1.6 km/h 16.1 km/h 73 % 0.0 mm
09:27 18.7 °C 13.3 °C 1021.9 hPa WNW 12.9 km/h 12.9 km/h 71 % 0.0 mm
09:32 18.6 °C 13.2 °C 1022.2 hPa West 8.0 km/h 17.7 km/h 71 % 0.0 mm
09:37 18.7 °C 12.9 °C 1022.2 hPa WNW 8.0 km/h 17.7 km/h 69 % 0.0 mm
09:42 18.6 °C 11.9 °C 1022.2 hPa WNW 11.3 km/h 17.7 km/h 65 % 0.0 mm
09:47 18.4 °C 11.5 °C 1022.2 hPa WNW 8.0 km/h 14.5 km/h 64 % 0.0 mm
09:52 18.4 °C 11.5 °C 1021.9 hPa WNW 4.8 km/h 14.5 km/h 64 % 0.0 mm
09:57 18.6 °C 10.7 °C 1021.9 hPa NNW 6.4 km/h 14.5 km/h 60 % 0.0 mm
10:02 18.9 °C 11.2 °C 1021.9 hPa WSW 3.2 km/h 14.5 km/h 61 % 0.0 mm
10:12 19.2 °C 10.2 °C 1022.2 hPa WNW 3.2 km/h 14.5 km/h 56 % 0.0 mm
10:17 19.6 °C 9.8 °C 1022.2 hPa West 8.0 km/h 16.1 km/h 53 % 0.0 mm
10:22 19.6 °C 9.8 °C 1022.2 hPa WSW 4.8 km/h 16.1 km/h 53 % 0.0 mm
10:32 20.1 °C 10.5 °C 1022.2 hPa West 4.8 km/h 14.5 km/h 54 % 0.0 mm
10:37 20.1 °C 10.2 °C 1022.2 hPa West 4.8 km/h 11.3 km/h 53 % 0.0 mm
10:42 20.2 °C 10.9 °C 1022.2 hPa NNW 4.8 km/h 14.5 km/h 55 % 0.0 mm
10:52 20.8 °C 10.6 °C 1022.2 hPa West 3.2 km/h 14.5 km/h 52 % 0.0 mm
10:57 21.1 °C 10.9 °C 1022.2 hPa NW 11.3 km/h 14.5 km/h 52 % 0.0 mm
11:02 21.0 °C 10.5 °C 1022.2 hPa North 8.0 km/h 14.5 km/h 51 % 0.0 mm
11:12 20.8 °C 10.6 °C 1022.2 hPa NNE 4.8 km/h 14.5 km/h 52 % 0.0 mm
11:17 20.9 °C 10.7 °C 1022.2 hPa NNW 4.8 km/h 17.7 km/h 52 % 0.0 mm
11:22 20.7 °C 10.5 °C 1022.2 hPa NNW 4.8 km/h 17.7 km/h 52 % 0.0 mm
11:32 20.9 °C 11.2 °C 1022.2 hPa WNW 6.4 km/h 17.7 km/h 54 % 0.0 mm
11:42 21.0 °C 10.8 °C 1022.2 hPa WNW 4.8 km/h 19.3 km/h 52 % 0.0 mm
11:52 21.0 °C 10.8 °C 1022.6 hPa NNW 9.7 km/h 19.3 km/h 52 % 0.0 mm
12:02 20.6 °C 11.0 °C 1022.6 hPa West 8.0 km/h 25.7 km/h 54 % 0.0 mm
12:12 21.2 °C 11.2 °C 1022.6 hPa WSW 6.4 km/h 22.5 km/h 53 % 0.0 mm
12:17 21.4 °C 11.4 °C 1022.6 hPa WNW 9.7 km/h 19.3 km/h 53 % 0.0 mm
12:22 21.4 °C 11.4 °C 1022.6 hPa WNW 16.1 km/h 20.9 km/h 53 % 0.0 mm
12:32 21.3 °C 11.3 °C 1022.2 hPa West 19.3 km/h 29.0 km/h 53 % 0.0 mm
12:42 21.2 °C 11.2 °C 1022.2 hPa WNW 19.3 km/h 24.1 km/h 53 % 0.0 mm
12:47 21.1 °C 10.9 °C 1022.2 hPa WNW 9.7 km/h 24.1 km/h 52 % 0.0 mm
12:52 21.2 °C 10.7 °C 1022.2 hPa NW 4.8 km/h 25.7 km/h 51 % 0.0 mm
12:57 21.3 °C 11.3 °C 1022.2 hPa NW 6.4 km/h 25.7 km/h 53 % 0.0 mm
13:02 21.8 °C 11.8 °C 1022.2 hPa WSW 11.3 km/h 19.3 km/h 53 % 0.0 mm
13:12 21.8 °C 10.9 °C 1022.6 hPa West 8.0 km/h 25.7 km/h 50 % 0.0 mm
13:17 21.8 °C 11.2 °C 1022.2 hPa Calm   25.7 km/h 51 % 0.0 mm
13:22 22.0 °C 10.5 °C 1022.2 hPa NW 16.1 km/h 22.5 km/h 48 % 0.0 mm
13:27 22.0 °C 10.5 °C 1022.2 hPa West 3.2 km/h 22.5 km/h 48 % 0.0 mm
13:32 21.8 °C 11.5 °C 1022.2 hPa NW 9.7 km/h 22.5 km/h 52 % 0.0 mm
13:37 22.1 °C 11.5 °C 1022.2 hPa NW 3.2 km/h 22.5 km/h 51 % 0.0 mm
13:42 22.5 °C 11.6 °C 1022.2 hPa WNW 11.3 km/h 20.9 km/h 50 % 0.0 mm
13:47 22.4 °C 11.5 °C 1022.2 hPa WNW 3.2 km/h 20.9 km/h 50 % 0.0 mm
13:52 22.5 °C 10.9 °C 1022.2 hPa WNW 16.1 km/h 20.9 km/h 48 % 0.0 mm
13:57 22.3 °C 11.1 °C 1022.2 hPa SW 1.6 km/h 20.9 km/h 49 % 0.0 mm
14:02 22.7 °C 10.8 °C 1022.2 hPa WSW 6.4 km/h 22.5 km/h 47 % 0.0 mm
14:12 22.6 °C 11.3 °C 1022.2 hPa West 6.4 km/h 24.1 km/h 49 % 0.0 mm
14:17 22.4 °C 10.8 °C 1021.9 hPa NNW 9.7 km/h 20.9 km/h 48 % 0.0 mm
14:22 22.4 °C 11.2 °C 1022.2 hPa NNW 4.8 km/h 20.9 km/h 49 % 0.0 mm
14:32 22.8 °C 10.9 °C 1022.2 hPa WNW 6.4 km/h 22.5 km/h 47 % 0.0 mm
14:37 22.7 °C 11.1 °C 1021.9 hPa WNW 3.2 km/h 22.5 km/h 48 % 0.0 mm
14:42 23.0 °C 11.1 °C 1021.9 hPa West 6.4 km/h 22.5 km/h 47 % 0.0 mm
14:47 22.9 °C 11.3 °C 1021.9 hPa West 11.3 km/h 24.1 km/h 48 % 0.0 mm
14:52 23.0 °C 11.1 °C 1021.9 hPa WNW 14.5 km/h 24.1 km/h 47 % 0.0 mm
14:57 23.0 °C 11.1 °C 1021.6 hPa North 8.0 km/h 24.1 km/h 47 % 0.0 mm
15:02 23.1 °C 11.8 °C 1021.6 hPa West 11.3 km/h 17.7 km/h 49 % 0.0 mm
15:07 23.3 °C 11.7 °C 1021.6 hPa WNW 11.3 km/h 22.5 km/h 48 % 0.0 mm
15:12 23.1 °C 11.2 °C 1021.6 hPa WSW 6.4 km/h 22.5 km/h 47 % 0.0 mm
15:17 23.2 °C 11.6 °C 1021.6 hPa WNW 12.9 km/h 22.5 km/h 48 % 0.0 mm
15:22 23.2 °C 10.9 °C 1021.9 hPa West 11.3 km/h 19.3 km/h 46 % 0.0 mm
15:27 23.1 °C 10.8 °C 1021.9 hPa West 12.9 km/h 22.5 km/h 46 % 0.0 mm
15:32 23.3 °C 11.0 °C 1021.9 hPa West 9.7 km/h 22.5 km/h 46 % 0.0 mm
15:37 23.2 °C 10.9 °C 1021.9 hPa NW 9.7 km/h 22.5 km/h 46 % 0.0 mm
15:42 23.2 °C 10.9 °C 1021.9 hPa WNW 4.8 km/h 20.9 km/h 46 % 0.0 mm
15:47 23.1 °C 10.8 °C 1021.9 hPa WSW 8.0 km/h 19.3 km/h 46 % 0.0 mm
15:52 23.2 °C 10.9 °C 1021.9 hPa WNW 8.0 km/h 19.3 km/h 46 % 0.0 mm
16:02 23.3 °C 11.7 °C 1021.9 hPa WSW 9.7 km/h 19.3 km/h 48 % 0.0 mm
16:12 23.3 °C 10.7 °C 1021.9 hPa West 14.5 km/h 22.5 km/h 45 % 0.0 mm
16:17 23.6 °C 11.6 °C 1021.9 hPa Calm   22.5 km/h 47 % 0.0 mm
16:27 23.6 °C 11.3 °C 1021.9 hPa WNW 9.7 km/h 22.5 km/h 46 % 0.0 mm
16:32 23.3 °C 11.7 °C 1021.9 hPa NW 11.3 km/h 22.5 km/h 48 % 0.0 mm
16:37 22.9 °C 11.0 °C 1021.6 hPa WNW 8.0 km/h 22.5 km/h 47 % 0.0 mm
16:42 23.4 °C 11.4 °C 1021.6 hPa NW 8.0 km/h 17.7 km/h 47 % 0.0 mm
16:52 23.4 °C 10.8 °C 1021.6 hPa WNW 14.5 km/h 17.7 km/h 45 % 0.0 mm
16:57 23.8 °C 11.2 °C 1021.6 hPa WNW 11.3 km/h 17.7 km/h 45 % 0.0 mm
17:02 23.6 °C 11.0 °C 1021.6 hPa SSW 6.4 km/h 22.5 km/h 45 % 0.0 mm
17:07 23.7 °C 11.1 °C 1021.6 hPa West 4.8 km/h 22.5 km/h 45 % 0.0 mm
17:12 23.4 °C 10.8 °C 1021.6 hPa West 11.3 km/h 25.7 km/h 45 % 0.0 mm
17:17 23.3 °C 11.0 °C 1021.6 hPa WNW 9.7 km/h 25.7 km/h 46 % 0.0 mm
17:22 23.2 °C 11.3 °C 1021.6 hPa NW 6.4 km/h 25.7 km/h 47 % 0.0 mm
17:32 24.2 °C 11.8 °C 1021.6 hPa SW 8.0 km/h 20.9 km/h 46 % 0.0 mm
17:42 23.7 °C 11.1 °C 1021.6 hPa WNW 12.9 km/h 19.3 km/h 45 % 0.0 mm
17:57 23.9 °C 11.6 °C 1021.6 hPa West 4.8 km/h 24.1 km/h 46 % 0.0 mm
18:02 24.0 °C 11.3 °C 1021.6 hPa WSW 14.5 km/h 22.5 km/h 45 % 0.0 mm
18:12 23.6 °C 11.3 °C 1021.6 hPa WNW 4.8 km/h 24.1 km/h 46 % 0.0 mm
18:17 23.8 °C 11.5 °C 1021.6 hPa WNW 11.3 km/h 24.1 km/h 46 % 0.0 mm
18:22 23.8 °C 11.5 °C 1021.6 hPa West 1.6 km/h 24.1 km/h 46 % 0.0 mm
18:32 23.8 °C 11.8 °C 1021.6 hPa West 11.3 km/h 22.5 km/h 47 % 0.0 mm
18:42 24.0 °C 12.0 °C 1021.6 hPa North 3.2 km/h 22.5 km/h 47 % 0.0 mm
18:52 24.2 °C 12.2 °C 1021.6 hPa West 9.7 km/h 14.5 km/h 47 % 0.0 mm
18:57 23.9 °C 11.6 °C 1021.6 hPa WNW 14.5 km/h 17.7 km/h 46 % 0.0 mm
19:02 23.3 °C 11.7 °C 1021.6 hPa WNW 6.4 km/h 17.7 km/h 48 % 0.0 mm
19:12 23.4 °C 11.8 °C 1021.6 hPa WNW 4.8 km/h 17.7 km/h 48 % 0.0 mm
19:22 22.8 °C 11.8 °C 1021.6 hPa West 4.8 km/h 16.1 km/h 50 % 0.0 mm
19:27 23.1 °C 12.1 °C 1021.6 hPa Calm   16.1 km/h 50 % 0.0 mm
19:32 23.3 °C 12.0 °C 1021.6 hPa NW 8.0 km/h 16.1 km/h 49 % 0.0 mm
19:37 23.3 °C 12.0 °C 1021.6 hPa WNW 4.8 km/h 14.5 km/h 49 % 0.0 mm
19:42 23.4 °C 12.1 °C 1021.6 hPa NNW 4.8 km/h 14.5 km/h 49 % 0.0 mm
19:47 23.7 °C 12.0 °C 1021.6 hPa West 3.2 km/h 12.9 km/h 48 % 0.0 mm
19:57 23.6 °C 12.3 °C 1021.6 hPa West 17.7 km/h 17.7 km/h 49 % 0.0 mm
20:02 23.4 °C 12.1 °C 1021.6 hPa WNW 9.7 km/h 17.7 km/h 49 % 0.0 mm
20:12 23.1 °C 12.1 °C 1021.6 hPa WNW 9.7 km/h 17.7 km/h 50 % 0.0 mm
20:17 22.8 °C 12.1 °C 1021.9 hPa WNW 6.4 km/h 19.3 km/h 51 % 0.0 mm
20:22 22.6 °C 12.2 °C 1021.6 hPa WSW 6.4 km/h 19.3 km/h 52 % 0.0 mm
20:27 22.4 °C 12.3 °C 1021.6 hPa WNW 6.4 km/h 19.3 km/h 53 % 0.0 mm
20:32 22.4 °C 12.3 °C 1021.9 hPa WNW 4.8 km/h 11.3 km/h 53 % 0.0 mm
20:42 22.6 °C 12.5 °C 1021.9 hPa NW 4.8 km/h 11.3 km/h 53 % 0.0 mm
20:47 22.4 °C 12.6 °C 1021.9 hPa NW 3.2 km/h 11.3 km/h 54 % 0.0 mm
20:52 22.0 °C 12.5 °C 1021.9 hPa WNW 6.4 km/h 8.0 km/h 55 % 0.0 mm
20:57 21.7 °C 12.5 °C 1021.9 hPa WNW 4.8 km/h 9.7 km/h 56 % 0.0 mm
21:02 21.5 °C 12.6 °C 1021.9 hPa NW 1.6 km/h 11.3 km/h 57 % 0.0 mm
21:07 21.3 °C 12.7 °C 1021.9 hPa WNW 4.8 km/h 11.3 km/h 58 % 0.0 mm
21:12 21.2 °C 12.6 °C 1021.9 hPa WNW 3.2 km/h 11.3 km/h 58 % 0.0 mm
21:17 21.1 °C 12.8 °C 1021.9 hPa WNW 3.2 km/h 6.4 km/h 59 % 0.0 mm
21:22 20.9 °C 12.6 °C 1021.9 hPa WNW 3.2 km/h 8.0 km/h 59 % 0.0 mm
21:32 20.6 °C 12.6 °C 1021.9 hPa WNW 6.4 km/h 9.7 km/h 60 % 0.0 mm
21:42 20.3 °C 12.5 °C 1022.2 hPa WNW 4.8 km/h 9.7 km/h 61 % 0.0 mm
21:47 20.2 °C 12.7 °C 1022.2 hPa WNW 4.8 km/h 9.7 km/h 62 % 0.0 mm
21:52 20.1 °C 12.6 °C 1022.2 hPa WNW 3.2 km/h 8.0 km/h 62 % 0.0 mm
21:57 19.9 °C 12.6 °C 1022.2 hPa WNW 3.2 km/h 8.0 km/h 63 % 0.0 mm
22:02 19.8 °C 12.6 °C 1022.2 hPa WNW 1.6 km/h 8.0 km/h 63 % 0.0 mm
22:12 19.6 °C 12.6 °C 1022.2 hPa West 3.2 km/h 4.8 km/h 64 % 0.0 mm
22:17 19.4 °C 12.4 °C 1022.2 hPa WNW 4.8 km/h 4.8 km/h 64 % 0.0 mm
22:22 19.3 °C 12.6 °C 1022.6 hPa WNW 4.8 km/h 6.4 km/h 65 % 0.0 mm
22:27 19.0 °C 12.5 °C 1022.6 hPa WNW 4.8 km/h 6.4 km/h 66 % 0.0 mm
22:32 18.8 °C 12.5 °C 1022.6 hPa WNW 4.8 km/h 4.8 km/h 67 % 0.0 mm
22:37 18.7 °C 12.7 °C 1022.6 hPa WNW 4.8 km/h 6.4 km/h 68 % 0.0 mm
22:42 18.6 °C 12.6 °C 1022.6 hPa WNW 4.8 km/h 6.4 km/h 68 % 0.0 mm
22:47 18.4 °C 12.6 °C 1022.6 hPa WNW 4.8 km/h 6.4 km/h 69 % 0.0 mm
22:52 18.3 °C 12.5 °C 1022.6 hPa West 4.8 km/h 6.4 km/h 69 % 0.0 mm
22:57 18.3 °C 12.5 °C 1022.6 hPa WNW 4.8 km/h 6.4 km/h 69 % 0.0 mm
23:02 18.3 °C 12.5 °C 1022.6 hPa WNW 4.8 km/h 6.4 km/h 69 % 0.0 mm
23:12 18.1 °C 12.5 °C 1022.6 hPa Calm   6.4 km/h 70 % 0.0 mm
23:17 17.9 °C 12.4 °C 1022.9 hPa WNW 3.2 km/h 4.8 km/h 70 % 0.0 mm
23:22 17.8 °C 12.5 °C 1022.9 hPa Calm   4.8 km/h 71 % 0.0 mm
23:32 17.8 °C 12.5 °C 1022.9 hPa WNW 1.6 km/h 4.8 km/h 71 % 0.0 mm
23:42 17.6 °C 12.3 °C 1022.9 hPa WNW 3.2 km/h 4.8 km/h 71 % 0.0 mm
23:47 17.4 °C 12.3 °C 1022.9 hPa WNW 4.8 km/h 6.4 km/h 72 % 0.0 mm
23:52 17.3 °C 12.2 °C 1022.9 hPa Calm   6.4 km/h 72 % 0.0 mm
23:57 17.3 °C 12.2 °C 1023.2 hPa WNW 3.2 km/h 6.4 km/h 72 % 0.0 mm
Meteo18
Compliments of Weather Underground - 4 mb

Script developed by  Jim McMurry - jmcmurry@mwt.net Adapted for the template by  Wim van der Kuil - Leuven-Template.eu

You find our weather info also at:

European Weather Network

Weather Underground

Equipment we use:

Weather-station
Davis Vue

Weather-program
Meteohub

Weather-server
Raspberry PI 2 B+

Provider
1 and 1

Davis Vue

Meteohub

Raspberry PI 2 B+

1 and 1